sensor_id;sensor_type;location;lat;lon;timestamp;P1;durP1;ratioP1;P2;durP2;ratioP2
72065;SDS011;59939;52.516;13.420;2022-10-31T00:04:34;41.78;;;23.00;;
72065;SDS011;59939;52.516;13.420;2022-10-31T00:07:38;34.83;;;21.52;;
72065;SDS011;59939;52.516;13.420;2022-10-31T00:10:43;39.97;;;22.42;;
72065;SDS011;59939;52.516;13.420;2022-10-31T00:13:47;37.70;;;21.48;;
72065;SDS011;59939;52.516;13.420;2022-10-31T00:16:52;41.50;;;23.27;;
72065;SDS011;59939;52.516;13.420;2022-10-31T00:19:56;37.95;;;23.63;;
72065;SDS011;59939;52.516;13.420;2022-10-31T00:23:00;37.47;;;24.52;;
72065;SDS011;59939;52.516;13.420;2022-10-31T00:26:05;40.50;;;26.58;;
72065;SDS011;59939;52.516;13.420;2022-10-31T00:29:10;40.80;;;23.13;;
72065;SDS011;59939;52.516;13.420;2022-10-31T00:32:19;33.90;;;21.05;;
72065;SDS011;59939;52.516;13.420;2022-10-31T00:35:25;37.78;;;22.75;;
72065;SDS011;59939;52.516;13.420;2022-10-31T00:38:29;38.35;;;23.30;;
72065;SDS011;59939;52.516;13.420;2022-10-31T00:41:32;39.03;;;22.48;;
72065;SDS011;59939;52.516;13.420;2022-10-31T00:44:39;35.83;;;21.63;;
72065;SDS011;59939;52.516;13.420;2022-10-31T00:47:42;41.63;;;22.52;;
72065;SDS011;59939;52.516;13.420;2022-10-31T00:50:46;36.80;;;20.92;;
72065;SDS011;59939;52.516;13.420;2022-10-31T00:53:51;38.47;;;22.73;;
72065;SDS011;59939;52.516;13.420;2022-10-31T00:56:54;42.08;;;23.42;;
72065;SDS011;59939;52.516;13.420;2022-10-31T01:00:00;32.45;;;20.80;;
72065;SDS011;59939;52.516;13.420;2022-10-31T01:03:06;39.65;;;22.05;;
72065;SDS011;59939;52.516;13.420;2022-10-31T01:06:14;37.28;;;21.77;;
72065;SDS011;59939;52.516;13.420;2022-10-31T01:09:19;35.42;;;18.98;;
72065;SDS011;59939;52.516;13.420;2022-10-31T01:12:26;38.85;;;21.02;;
72065;SDS011;59939;52.516;13.420;2022-10-31T01:15:42;35.00;;;21.08;;
72065;SDS011;59939;52.516;13.420;2022-10-31T01:18:49;35.25;;;20.40;;
72065;SDS011;59939;52.516;13.420;2022-10-31T01:21:55;34.53;;;20.65;;
72065;SDS011;59939;52.516;13.420;2022-10-31T01:25:01;32.70;;;20.08;;
72065;SDS011;59939;52.516;13.420;2022-10-31T01:28:05;36.38;;;20.38;;
72065;SDS011;59939;52.516;13.420;2022-10-31T01:31:11;34.25;;;19.55;;
72065;SDS011;59939;52.516;13.420;2022-10-31T01:34:16;29.80;;;17.60;;
72065;SDS011;59939;52.516;13.420;2022-10-31T01:37:22;30.40;;;17.20;;
72065;SDS011;59939;52.516;13.420;2022-10-31T01:40:29;28.15;;;17.02;;
72065;SDS011;59939;52.516;13.420;2022-10-31T01:47:16;31.02;;;17.10;;
72065;SDS011;59939;52.516;13.420;2022-10-31T01:54:02;28.33;;;15.13;;
72065;SDS011;59939;52.516;13.420;2022-10-31T01:57:10;29.63;;;15.55;;
72065;SDS011;59939;52.516;13.420;2022-10-31T02:00:19;27.92;;;14.73;;
72065;SDS011;59939;52.516;13.420;2022-10-31T02:03:24;27.45;;;13.13;;
72065;SDS011;59939;52.516;13.420;2022-10-31T02:06:38;25.05;;;11.73;;
72065;SDS011;59939;52.516;13.420;2022-10-31T02:09:55;25.67;;;12.93;;
72065;SDS011;59939;52.516;13.420;2022-10-31T02:13:01;28.30;;;15.02;;
72065;SDS011;59939;52.516;13.420;2022-10-31T02:16:08;27.67;;;14.07;;
72065;SDS011;59939;52.516;13.420;2022-10-31T02:19:17;27.27;;;14.88;;
72065;SDS011;59939;52.516;13.420;2022-10-31T02:26:05;32.25;;;14.02;;
72065;SDS011;59939;52.516;13.420;2022-10-31T02:29:38;30.10;;;13.77;;
72065;SDS011;59939;52.516;13.420;2022-10-31T02:32:54;25.83;;;13.88;;
72065;SDS011;59939;52.516;13.420;2022-10-31T02:36:13;28.77;;;14.32;;
72065;SDS011;59939;52.516;13.420;2022-10-31T02:39:32;24.17;;;13.20;;
72065;SDS011;59939;52.516;13.420;2022-10-31T02:49:53;31.05;;;13.13;;
72065;SDS011;59939;52.516;13.420;2022-10-31T02:53:01;25.95;;;13.57;;
72065;SDS011;59939;52.516;13.420;2022-10-31T02:56:19;28.65;;;12.75;;
72065;SDS011;59939;52.516;13.420;2022-10-31T02:59:23;28.38;;;13.13;;
72065;SDS011;59939;52.516;13.420;2022-10-31T03:13:09;27.42;;;13.82;;
72065;SDS011;59939;52.516;13.420;2022-10-31T03:16:35;29.45;;;12.98;;
72065;SDS011;59939;52.516;13.420;2022-10-31T03:19:49;24.90;;;12.32;;
72065;SDS011;59939;52.516;13.420;2022-10-31T03:22:57;27.10;;;11.88;;
72065;SDS011;59939;52.516;13.420;2022-10-31T03:26:05;25.33;;;11.20;;
72065;SDS011;59939;52.516;13.420;2022-10-31T03:32:45;26.55;;;12.35;;
72065;SDS011;59939;52.516;13.420;2022-10-31T03:35:54;24.45;;;10.02;;
72065;SDS011;59939;52.516;13.420;2022-10-31T03:39:02;25.02;;;11.88;;
72065;SDS011;59939;52.516;13.420;2022-10-31T03:42:14;21.98;;;10.63;;
72065;SDS011;59939;52.516;13.420;2022-10-31T03:45:26;22.52;;;9.23;;
72065;SDS011;59939;52.516;13.420;2022-10-31T03:48:33;22.75;;;11.10;;
72065;SDS011;59939;52.516;13.420;2022-10-31T03:55:18;24.00;;;11.50;;
72065;SDS011;59939;52.516;13.420;2022-10-31T03:58:26;19.83;;;8.95;;
72065;SDS011;59939;52.516;13.420;2022-10-31T04:01:37;22.13;;;9.85;;
72065;SDS011;59939;52.516;13.420;2022-10-31T04:04:45;26.10;;;12.25;;
72065;SDS011;59939;52.516;13.420;2022-10-31T04:07:56;24.75;;;9.40;;
72065;SDS011;59939;52.516;13.420;2022-10-31T04:11:09;20.90;;;9.77;;
72065;SDS011;59939;52.516;13.420;2022-10-31T04:14:17;27.52;;;9.98;;
72065;SDS011;59939;52.516;13.420;2022-10-31T04:17:24;23.95;;;10.95;;
72065;SDS011;59939;52.516;13.420;2022-10-31T04:20:37;25.30;;;10.88;;
72065;SDS011;59939;52.516;13.420;2022-10-31T04:23:45;24.35;;;11.48;;
72065;SDS011;59939;52.516;13.420;2022-10-31T04:26:58;23.35;;;11.43;;
72065;SDS011;59939;52.516;13.420;2022-10-31T04:30:04;23.25;;;11.32;;
72065;SDS011;59939;52.516;13.420;2022-10-31T04:33:13;23.75;;;10.93;;
72065;SDS011;59939;52.516;13.420;2022-10-31T04:36:22;29.88;;;12.88;;
72065;SDS011;59939;52.516;13.420;2022-10-31T04:39:25;25.35;;;9.43;;
72065;SDS011;59939;52.516;13.420;2022-10-31T04:42:48;22.88;;;11.13;;
72065;SDS011;59939;52.516;13.420;2022-10-31T04:45:52;27.27;;;11.18;;
72065;SDS011;59939;52.516;13.420;2022-10-31T04:48:57;23.05;;;12.77;;
72065;SDS011;59939;52.516;13.420;2022-10-31T04:52:14;27.98;;;12.70;;
72065;SDS011;59939;52.516;13.420;2022-10-31T04:55:19;30.00;;;13.90;;
72065;SDS011;59939;52.516;13.420;2022-10-31T04:58:46;30.92;;;12.57;;
72065;SDS011;59939;52.516;13.420;2022-10-31T05:01:51;27.98;;;12.93;;
72065;SDS011;59939;52.516;13.420;2022-10-31T05:05:20;27.10;;;12.75;;
72065;SDS011;59939;52.516;13.420;2022-10-31T05:08:27;23.20;;;12.85;;
72065;SDS011;59939;52.516;13.420;2022-10-31T05:11:32;22.00;;;10.95;;
72065;SDS011;59939;52.516;13.420;2022-10-31T05:14:47;21.98;;;11.18;;
72065;SDS011;59939;52.516;13.420;2022-10-31T05:18:12;29.17;;;12.57;;
72065;SDS011;59939;52.516;13.420;2022-10-31T05:21:31;29.63;;;13.90;;
72065;SDS011;59939;52.516;13.420;2022-10-31T05:24:39;27.73;;;11.93;;
72065;SDS011;59939;52.516;13.420;2022-10-31T05:27:50;26.20;;;12.73;;
72065;SDS011;59939;52.516;13.420;2022-10-31T05:30:56;28.45;;;13.27;;
72065;SDS011;59939;52.516;13.420;2022-10-31T05:33:59;28.98;;;12.95;;
72065;SDS011;59939;52.516;13.420;2022-10-31T05:37:22;27.02;;;12.18;;
72065;SDS011;59939;52.516;13.420;2022-10-31T05:40:33;29.40;;;13.75;;
72065;SDS011;59939;52.516;13.420;2022-10-31T05:43:38;29.23;;;13.60;;
72065;SDS011;59939;52.516;13.420;2022-10-31T05:46:43;26.95;;;13.40;;
72065;SDS011;59939;52.516;13.420;2022-10-31T05:50:13;29.95;;;14.80;;
72065;SDS011;59939;52.516;13.420;2022-10-31T05:53:34;26.85;;;13.90;;
72065;SDS011;59939;52.516;13.420;2022-10-31T05:56:39;27.73;;;13.43;;
72065;SDS011;59939;52.516;13.420;2022-10-31T05:59:42;26.27;;;14.30;;
72065;SDS011;59939;52.516;13.420;2022-10-31T06:02:46;25.92;;;14.05;;
72065;SDS011;59939;52.516;13.420;2022-10-31T06:06:02;22.63;;;12.50;;
72065;SDS011;59939;52.516;13.420;2022-10-31T06:09:11;31.60;;;13.00;;
72065;SDS011;59939;52.516;13.420;2022-10-31T06:12:16;30.70;;;14.73;;
72065;SDS011;59939;52.516;13.420;2022-10-31T06:15:41;30.42;;;15.27;;
72065;SDS011;59939;52.516;13.420;2022-10-31T06:18:45;32.55;;;16.30;;
72065;SDS011;59939;52.516;13.420;2022-10-31T06:21:49;29.15;;;14.35;;
72065;SDS011;59939;52.516;13.420;2022-10-31T06:25:10;32.15;;;15.27;;
72065;SDS011;59939;52.516;13.420;2022-10-31T06:28:21;32.13;;;16.70;;
72065;SDS011;59939;52.516;13.420;2022-10-31T06:31:46;26.70;;;14.43;;
72065;SDS011;59939;52.516;13.420;2022-10-31T06:34:50;27.58;;;15.90;;
72065;SDS011;59939;52.516;13.420;2022-10-31T06:37:57;30.05;;;16.80;;
72065;SDS011;59939;52.516;13.420;2022-10-31T06:41:11;36.10;;;17.80;;
72065;SDS011;59939;52.516;13.420;2022-10-31T06:44:20;29.60;;;17.30;;
72065;SDS011;59939;52.516;13.420;2022-10-31T06:47:56;31.20;;;15.57;;
72065;SDS011;59939;52.516;13.420;2022-10-31T06:51:38;29.80;;;15.35;;
72065;SDS011;59939;52.516;13.420;2022-10-31T06:54:42;32.35;;;16.52;;
72065;SDS011;59939;52.516;13.420;2022-10-31T06:57:56;32.28;;;16.00;;
72065;SDS011;59939;52.516;13.420;2022-10-31T07:01:07;32.67;;;15.73;;
72065;SDS011;59939;52.516;13.420;2022-10-31T07:04:16;25.95;;;15.60;;
72065;SDS011;59939;52.516;13.420;2022-10-31T07:07:22;30.25;;;16.05;;
72065;SDS011;59939;52.516;13.420;2022-10-31T07:10:27;31.48;;;15.32;;
72065;SDS011;59939;52.516;13.420;2022-10-31T07:13:38;32.75;;;15.10;;
72065;SDS011;59939;52.516;13.420;2022-10-31T07:16:43;30.50;;;15.85;;
72065;SDS011;59939;52.516;13.420;2022-10-31T07:19:50;32.72;;;16.05;;
72065;SDS011;59939;52.516;13.420;2022-10-31T07:22:55;32.47;;;17.40;;
72065;SDS011;59939;52.516;13.420;2022-10-31T07:26:09;30.35;;;17.45;;
72065;SDS011;59939;52.516;13.420;2022-10-31T07:29:23;36.00;;;18.60;;
72065;SDS011;59939;52.516;13.420;2022-10-31T07:32:41;31.52;;;17.73;;
72065;SDS011;59939;52.516;13.420;2022-10-31T07:35:49;31.98;;;19.45;;
72065;SDS011;59939;52.516;13.420;2022-10-31T07:39:05;35.40;;;18.20;;
72065;SDS011;59939;52.516;13.420;2022-10-31T07:42:23;35.65;;;18.60;;
72065;SDS011;59939;52.516;13.420;2022-10-31T07:45:28;31.67;;;17.00;;
72065;SDS011;59939;52.516;13.420;2022-10-31T07:48:51;37.35;;;17.80;;
72065;SDS011;59939;52.516;13.420;2022-10-31T07:52:14;38.05;;;17.70;;
72065;SDS011;59939;52.516;13.420;2022-10-31T07:55:40;35.05;;;19.35;;
72065;SDS011;59939;52.516;13.420;2022-10-31T07:58:49;40.85;;;23.65;;
72065;SDS011;59939;52.516;13.420;2022-10-31T08:01:53;42.60;;;23.40;;
72065;SDS011;59939;52.516;13.420;2022-10-31T08:05:17;40.92;;;22.30;;
72065;SDS011;59939;52.516;13.420;2022-10-31T08:08:55;41.25;;;23.33;;
72065;SDS011;59939;52.516;13.420;2022-10-31T08:11:59;41.25;;;24.83;;
72065;SDS011;59939;52.516;13.420;2022-10-31T08:15:03;47.75;;;27.58;;
72065;SDS011;59939;52.516;13.420;2022-10-31T08:18:17;47.03;;;27.40;;
72065;SDS011;59939;52.516;13.420;2022-10-31T08:21:28;44.92;;;27.42;;
72065;SDS011;59939;52.516;13.420;2022-10-31T08:24:34;49.00;;;27.55;;
72065;SDS011;59939;52.516;13.420;2022-10-31T08:27:50;43.45;;;24.55;;
72065;SDS011;59939;52.516;13.420;2022-10-31T08:31:03;43.63;;;24.08;;
72065;SDS011;59939;52.516;13.420;2022-10-31T08:34:34;44.33;;;23.70;;
72065;SDS011;59939;52.516;13.420;2022-10-31T08:37:59;43.58;;;24.17;;
72065;SDS011;59939;52.516;13.420;2022-10-31T08:41:06;49.88;;;25.98;;
72065;SDS011;59939;52.516;13.420;2022-10-31T08:44:10;47.63;;;27.75;;
72065;SDS011;59939;52.516;13.420;2022-10-31T08:47:14;55.08;;;32.97;;
72065;SDS011;59939;52.516;13.420;2022-10-31T08:50:17;50.72;;;30.50;;
72065;SDS011;59939;52.516;13.420;2022-10-31T08:53:23;50.15;;;28.48;;
72065;SDS011;59939;52.516;13.420;2022-10-31T08:56:40;40.92;;;23.67;;
72065;SDS011;59939;52.516;13.420;2022-10-31T09:00:04;35.38;;;21.33;;
72065;SDS011;59939;52.516;13.420;2022-10-31T09:03:29;41.03;;;21.85;;
72065;SDS011;59939;52.516;13.420;2022-10-31T09:06:36;40.42;;;22.02;;
72065;SDS011;59939;52.516;13.420;2022-10-31T09:09:41;30.85;;;19.33;;
72065;SDS011;59939;52.516;13.420;2022-10-31T09:12:46;36.75;;;17.98;;
72065;SDS011;59939;52.516;13.420;2022-10-31T09:16:08;36.33;;;19.50;;
72065;SDS011;59939;52.516;13.420;2022-10-31T09:19:12;38.63;;;20.05;;
72065;SDS011;59939;52.516;13.420;2022-10-31T09:22:21;36.75;;;20.45;;
72065;SDS011;59939;52.516;13.420;2022-10-31T09:25:25;39.25;;;22.27;;
72065;SDS011;59939;52.516;13.420;2022-10-31T09:28:56;42.75;;;24.02;;
72065;SDS011;59939;52.516;13.420;2022-10-31T09:32:06;47.72;;;27.40;;
72065;SDS011;59939;52.516;13.420;2022-10-31T09:35:16;48.05;;;27.02;;
72065;SDS011;59939;52.516;13.420;2022-10-31T09:38:23;43.58;;;25.42;;
72065;SDS011;59939;52.516;13.420;2022-10-31T09:41:37;45.97;;;25.00;;
72065;SDS011;59939;52.516;13.420;2022-10-31T09:45:14;40.95;;;25.55;;
72065;SDS011;59939;52.516;13.420;2022-10-31T09:52:29;56.90;;;33.42;;
72065;SDS011;59939;52.516;13.420;2022-10-31T09:55:44;48.00;;;32.50;;
72065;SDS011;59939;52.516;13.420;2022-10-31T09:59:02;50.60;;;29.77;;
72065;SDS011;59939;52.516;13.420;2022-10-31T10:02:21;45.65;;;25.45;;
72065;SDS011;59939;52.516;13.420;2022-10-31T10:05:32;40.17;;;21.00;;
72065;SDS011;59939;52.516;13.420;2022-10-31T10:08:57;39.88;;;19.90;;
72065;SDS011;59939;52.516;13.420;2022-10-31T10:12:40;38.58;;;21.02;;
72065;SDS011;59939;52.516;13.420;2022-10-31T10:20:07;36.85;;;19.08;;
72065;SDS011;59939;52.516;13.420;2022-10-31T10:23:38;34.60;;;19.67;;
72065;SDS011;59939;52.516;13.420;2022-10-31T10:30:16;36.20;;;20.73;;
72065;SDS011;59939;52.516;13.420;2022-10-31T10:33:28;38.75;;;21.85;;
72065;SDS011;59939;52.516;13.420;2022-10-31T10:36:40;39.67;;;21.02;;
72065;SDS011;59939;52.516;13.420;2022-10-31T10:40:08;38.45;;;22.20;;
72065;SDS011;59939;52.516;13.420;2022-10-31T10:43:20;34.08;;;21.58;;
72065;SDS011;59939;52.516;13.420;2022-10-31T10:46:40;36.47;;;21.02;;
72065;SDS011;59939;52.516;13.420;2022-10-31T10:50:21;32.85;;;21.55;;
72065;SDS011;59939;52.516;13.420;2022-10-31T10:57:08;36.90;;;21.40;;
72065;SDS011;59939;52.516;13.420;2022-10-31T11:00:41;38.00;;;22.77;;
72065;SDS011;59939;52.516;13.420;2022-10-31T11:03:46;37.47;;;21.65;;
72065;SDS011;59939;52.516;13.420;2022-10-31T11:06:56;38.00;;;21.17;;
72065;SDS011;59939;52.516;13.420;2022-10-31T11:10:30;33.55;;;20.58;;
72065;SDS011;59939;52.516;13.420;2022-10-31T11:13:35;40.40;;;22.00;;
72065;SDS011;59939;52.516;13.420;2022-10-31T11:16:40;36.08;;;22.70;;
72065;SDS011;59939;52.516;13.420;2022-10-31T11:19:47;38.13;;;22.17;;
72065;SDS011;59939;52.516;13.420;2022-10-31T11:23:00;38.30;;;22.90;;
72065;SDS011;59939;52.516;13.420;2022-10-31T11:26:06;33.78;;;21.10;;
72065;SDS011;59939;52.516;13.420;2022-10-31T11:29:23;39.35;;;21.88;;
72065;SDS011;59939;52.516;13.420;2022-10-31T11:32:30;37.78;;;22.73;;
72065;SDS011;59939;52.516;13.420;2022-10-31T11:35:35;38.25;;;22.38;;
72065;SDS011;59939;52.516;13.420;2022-10-31T11:38:43;36.35;;;21.45;;
72065;SDS011;59939;52.516;13.420;2022-10-31T11:41:47;42.67;;;23.83;;
72065;SDS011;59939;52.516;13.420;2022-10-31T11:44:53;35.67;;;20.55;;
72065;SDS011;59939;52.516;13.420;2022-10-31T11:47:58;39.85;;;22.83;;
72065;SDS011;59939;52.516;13.420;2022-10-31T11:51:08;37.08;;;24.10;;
72065;SDS011;59939;52.516;13.420;2022-10-31T11:54:22;39.33;;;22.95;;
72065;SDS011;59939;52.516;13.420;2022-10-31T11:57:41;39.85;;;25.60;;
72065;SDS011;59939;52.516;13.420;2022-10-31T12:00:48;39.28;;;22.67;;
72065;SDS011;59939;52.516;13.420;2022-10-31T12:04:04;39.20;;;23.23;;
72065;SDS011;59939;52.516;13.420;2022-10-31T12:07:11;42.95;;;24.15;;
72065;SDS011;59939;52.516;13.420;2022-10-31T12:10:14;40.58;;;24.38;;
72065;SDS011;59939;52.516;13.420;2022-10-31T12:13:28;41.38;;;24.42;;
72065;SDS011;59939;52.516;13.420;2022-10-31T12:16:46;44.40;;;25.30;;
72065;SDS011;59939;52.516;13.420;2022-10-31T12:23:26;42.33;;;26.98;;
72065;SDS011;59939;52.516;13.420;2022-10-31T12:30:16;47.08;;;26.15;;
72065;SDS011;59939;52.516;13.420;2022-10-31T12:37:18;41.90;;;22.98;;
72065;SDS011;59939;52.516;13.420;2022-10-31T12:40:53;44.95;;;25.30;;
72065;SDS011;59939;52.516;13.420;2022-10-31T12:51:37;41.67;;;25.33;;
72065;SDS011;59939;52.516;13.420;2022-10-31T12:58:32;46.00;;;24.02;;
72065;SDS011;59939;52.516;13.420;2022-10-31T13:05:10;49.83;;;26.02;;
72065;SDS011;59939;52.516;13.420;2022-10-31T13:08:36;41.67;;;24.48;;
72065;SDS011;59939;52.516;13.420;2022-10-31T13:11:55;45.40;;;22.88;;
72065;SDS011;59939;52.516;13.420;2022-10-31T13:15:11;39.58;;;23.30;;
72065;SDS011;59939;52.516;13.420;2022-10-31T13:25:11;38.97;;;22.33;;
72065;SDS011;59939;52.516;13.420;2022-10-31T13:31:50;38.13;;;20.73;;
72065;SDS011;59939;52.516;13.420;2022-10-31T13:34:55;37.47;;;21.25;;
72065;SDS011;59939;52.516;13.420;2022-10-31T13:38:05;44.60;;;20.85;;
72065;SDS011;59939;52.516;13.420;2022-10-31T13:44:52;36.63;;;21.80;;
72065;SDS011;59939;52.516;13.420;2022-10-31T13:51:26;37.47;;;22.05;;
72065;SDS011;59939;52.516;13.420;2022-10-31T13:54:33;49.67;;;23.98;;
72065;SDS011;59939;52.516;13.420;2022-10-31T13:57:38;40.15;;;23.38;;
72065;SDS011;59939;52.516;13.420;2022-10-31T14:04:35;43.78;;;23.90;;
72065;SDS011;59939;52.516;13.420;2022-10-31T14:07:43;40.45;;;22.15;;
72065;SDS011;59939;52.516;13.420;2022-10-31T14:10:52;44.55;;;23.75;;
72065;SDS011;59939;52.516;13.420;2022-10-31T14:13:58;41.55;;;22.95;;
72065;SDS011;59939;52.516;13.420;2022-10-31T14:17:12;42.05;;;22.80;;
72065;SDS011;59939;52.516;13.420;2022-10-31T14:20:37;41.28;;;22.98;;
72065;SDS011;59939;52.516;13.420;2022-10-31T14:23:43;43.80;;;23.98;;
72065;SDS011;59939;52.516;13.420;2022-10-31T14:30:15;39.10;;;23.35;;
72065;SDS011;59939;52.516;13.420;2022-10-31T14:33:29;51.85;;;28.27;;
72065;SDS011;59939;52.516;13.420;2022-10-31T14:36:48;53.22;;;28.77;;
72065;SDS011;59939;52.516;13.420;2022-10-31T14:40:05;52.25;;;30.98;;
72065;SDS011;59939;52.516;13.420;2022-10-31T14:54:14;55.03;;;32.10;;
72065;SDS011;59939;52.516;13.420;2022-10-31T14:57:23;59.33;;;33.65;;
72065;SDS011;59939;52.516;13.420;2022-10-31T15:00:31;60.22;;;34.03;;
72065;SDS011;59939;52.516;13.420;2022-10-31T15:03:42;62.03;;;33.20;;
72065;SDS011;59939;52.516;13.420;2022-10-31T15:07:02;64.07;;;35.63;;
72065;SDS011;59939;52.516;13.420;2022-10-31T15:10:30;60.95;;;35.65;;
72065;SDS011;59939;52.516;13.420;2022-10-31T15:13:41;59.70;;;32.97;;
72065;SDS011;59939;52.516;13.420;2022-10-31T15:16:55;62.15;;;34.13;;
72065;SDS011;59939;52.516;13.420;2022-10-31T15:20:01;62.38;;;36.50;;
72065;SDS011;59939;52.516;13.420;2022-10-31T15:23:09;60.80;;;36.85;;
72065;SDS011;59939;52.516;13.420;2022-10-31T15:26:21;65.13;;;34.80;;
72065;SDS011;59939;52.516;13.420;2022-10-31T15:29:27;71.90;;;38.78;;
72065;SDS011;59939;52.516;13.420;2022-10-31T15:32:33;66.65;;;37.63;;
72065;SDS011;59939;52.516;13.420;2022-10-31T15:35:37;70.90;;;38.22;;
72065;SDS011;59939;52.516;13.420;2022-10-31T15:38:42;73.53;;;39.15;;
72065;SDS011;59939;52.516;13.420;2022-10-31T15:41:51;66.10;;;36.67;;
72065;SDS011;59939;52.516;13.420;2022-10-31T15:45:01;73.47;;;39.22;;
72065;SDS011;59939;52.516;13.420;2022-10-31T15:48:24;81.65;;;43.25;;
72065;SDS011;59939;52.516;13.420;2022-10-31T15:51:32;73.97;;;41.20;;
72065;SDS011;59939;52.516;13.420;2022-10-31T15:54:42;80.53;;;43.20;;
72065;SDS011;59939;52.516;13.420;2022-10-31T15:58:12;77.13;;;42.08;;
72065;SDS011;59939;52.516;13.420;2022-10-31T16:01:20;76.72;;;41.05;;
72065;SDS011;59939;52.516;13.420;2022-10-31T16:04:29;83.75;;;43.35;;
72065;SDS011;59939;52.516;13.420;2022-10-31T16:07:33;86.00;;;44.33;;
72065;SDS011;59939;52.516;13.420;2022-10-31T16:10:37;81.38;;;44.25;;
72065;SDS011;59939;52.516;13.420;2022-10-31T16:13:52;81.57;;;43.53;;
72065;SDS011;59939;52.516;13.420;2022-10-31T16:16:58;84.00;;;43.40;;
72065;SDS011;59939;52.516;13.420;2022-10-31T16:20:04;77.57;;;42.17;;
72065;SDS011;59939;52.516;13.420;2022-10-31T16:23:14;87.22;;;45.30;;
72065;SDS011;59939;52.516;13.420;2022-10-31T16:26:21;90.75;;;46.85;;
72065;SDS011;59939;52.516;13.420;2022-10-31T16:29:31;90.45;;;44.35;;
72065;SDS011;59939;52.516;13.420;2022-10-31T16:32:58;87.72;;;45.25;;
72065;SDS011;59939;52.516;13.420;2022-10-31T16:39:41;94.25;;;45.65;;
72065;SDS011;59939;52.516;13.420;2022-10-31T16:42:45;90.18;;;44.80;;
72065;SDS011;59939;52.516;13.420;2022-10-31T16:45:51;89.57;;;44.08;;
72065;SDS011;59939;52.516;13.420;2022-10-31T16:48:56;83.95;;;46.75;;
72065;SDS011;59939;52.516;13.420;2022-10-31T16:52:00;96.35;;;46.85;;
72065;SDS011;59939;52.516;13.420;2022-10-31T16:55:12;101.47;;;48.63;;
72065;SDS011;59939;52.516;13.420;2022-10-31T16:58:18;101.90;;;48.60;;
72065;SDS011;59939;52.516;13.420;2022-10-31T17:01:34;108.38;;;50.75;;
72065;SDS011;59939;52.516;13.420;2022-10-31T17:04:38;107.50;;;50.65;;
72065;SDS011;59939;52.516;13.420;2022-10-31T17:07:42;108.70;;;50.63;;
72065;SDS011;59939;52.516;13.420;2022-10-31T17:10:47;108.97;;;53.03;;
72065;SDS011;59939;52.516;13.420;2022-10-31T17:13:54;108.68;;;52.17;;
72065;SDS011;59939;52.516;13.420;2022-10-31T17:17:00;129.85;;;56.08;;
72065;SDS011;59939;52.516;13.420;2022-10-31T17:20:11;119.90;;;53.13;;
72065;SDS011;59939;52.516;13.420;2022-10-31T17:23:21;136.55;;;56.13;;
72065;SDS011;59939;52.516;13.420;2022-10-31T17:26:25;133.95;;;56.63;;
72065;SDS011;59939;52.516;13.420;2022-10-31T17:29:29;145.27;;;60.45;;
72065;SDS011;59939;52.516;13.420;2022-10-31T17:32:33;368.83;;;84.00;;
72065;SDS011;59939;52.516;13.420;2022-10-31T17:35:37;358.95;;;90.53;;
72065;SDS011;59939;52.516;13.420;2022-10-31T17:38:44;392.85;;;96.95;;
72065;SDS011;59939;52.516;13.420;2022-10-31T17:41:51;516.55;;;108.68;;
72065;SDS011;59939;52.516;13.420;2022-10-31T17:44:55;504.95;;;106.75;;
72065;SDS011;59939;52.516;13.420;2022-10-31T17:47:58;388.83;;;95.97;;
72065;SDS011;59939;52.516;13.420;2022-10-31T17:51:03;893.35;;;153.43;;
72065;SDS011;59939;52.516;13.420;2022-10-31T17:54:16;909.30;;;148.60;;
72065;SDS011;59939;52.516;13.420;2022-10-31T17:57:33;1024.35;;;169.75;;
72065;SDS011;59939;52.516;13.420;2022-10-31T18:00:40;876.45;;;155.48;;
72065;SDS011;59939;52.516;13.420;2022-10-31T18:03:45;803.47;;;148.93;;
72065;SDS011;59939;52.516;13.420;2022-10-31T18:06:50;1480.32;;;227.60;;
72065;SDS011;59939;52.516;13.420;2022-10-31T18:09:53;708.00;;;139.63;;
72065;SDS011;59939;52.516;13.420;2022-10-31T18:12:57;785.65;;;150.52;;
72065;SDS011;59939;52.516;13.420;2022-10-31T18:16:11;476.13;;;107.88;;
72065;SDS011;59939;52.516;13.420;2022-10-31T18:19:17;765.58;;;147.35;;
72065;SDS011;59939;52.516;13.420;2022-10-31T18:22:24;466.05;;;107.35;;
72065;SDS011;59939;52.516;13.420;2022-10-31T18:25:28;555.50;;;117.55;;
72065;SDS011;59939;52.516;13.420;2022-10-31T18:28:32;611.25;;;127.72;;
72065;SDS011;59939;52.516;13.420;2022-10-31T18:31:37;710.30;;;136.00;;
72065;SDS011;59939;52.516;13.420;2022-10-31T18:34:49;741.10;;;138.20;;
72065;SDS011;59939;52.516;13.420;2022-10-31T18:37:53;634.00;;;127.65;;
72065;SDS011;59939;52.516;13.420;2022-10-31T18:40:58;510.38;;;111.85;;
72065;SDS011;59939;52.516;13.420;2022-10-31T18:44:01;772.40;;;141.52;;
72065;SDS011;59939;52.516;13.420;2022-10-31T18:47:05;538.38;;;119.60;;
72065;SDS011;59939;52.516;13.420;2022-10-31T18:50:10;436.02;;;104.43;;
72065;SDS011;59939;52.516;13.420;2022-10-31T18:53:22;784.67;;;146.20;;
72065;SDS011;59939;52.516;13.420;2022-10-31T18:56:27;482.65;;;110.97;;
72065;SDS011;59939;52.516;13.420;2022-10-31T18:59:36;499.60;;;116.65;;
72065;SDS011;59939;52.516;13.420;2022-10-31T19:02:41;459.55;;;108.18;;
72065;SDS011;59939;52.516;13.420;2022-10-31T19:05:53;475.00;;;108.28;;
72065;SDS011;59939;52.516;13.420;2022-10-31T19:08:59;500.33;;;113.90;;
72065;SDS011;59939;52.516;13.420;2022-10-31T19:12:06;450.38;;;109.10;;
72065;SDS011;59939;52.516;13.420;2022-10-31T19:15:12;529.92;;;118.45;;
72065;SDS011;59939;52.516;13.420;2022-10-31T19:18:30;509.33;;;113.50;;
72065;SDS011;59939;52.516;13.420;2022-10-31T19:21:35;618.17;;;131.25;;
72065;SDS011;59939;52.516;13.420;2022-10-31T19:24:39;508.58;;;115.70;;
72065;SDS011;59939;52.516;13.420;2022-10-31T19:27:45;533.78;;;115.82;;
72065;SDS011;59939;52.516;13.420;2022-10-31T19:30:53;497.73;;;114.40;;
72065;SDS011;59939;52.516;13.420;2022-10-31T19:34:00;545.20;;;121.68;;
72065;SDS011;59939;52.516;13.420;2022-10-31T19:37:04;480.45;;;114.63;;
72065;SDS011;59939;52.516;13.420;2022-10-31T19:40:15;826.22;;;160.15;;
72065;SDS011;59939;52.516;13.420;2022-10-31T19:43:23;756.45;;;148.65;;
72065;SDS011;59939;52.516;13.420;2022-10-31T19:46:29;518.30;;;123.93;;
72065;SDS011;59939;52.516;13.420;2022-10-31T19:49:53;710.65;;;145.52;;
72065;SDS011;59939;52.516;13.420;2022-10-31T19:52:57;767.35;;;151.07;;
72065;SDS011;59939;52.516;13.420;2022-10-31T19:56:12;626.15;;;140.82;;
72065;SDS011;59939;52.516;13.420;2022-10-31T19:59:29;481.23;;;119.72;;
72065;SDS011;59939;52.516;13.420;2022-10-31T20:02:42;645.88;;;137.57;;
72065;SDS011;59939;52.516;13.420;2022-10-31T20:05:46;650.92;;;137.82;;
72065;SDS011;59939;52.516;13.420;2022-10-31T20:08:50;568.45;;;131.25;;
72065;SDS011;59939;52.516;13.420;2022-10-31T20:11:58;774.80;;;162.00;;
72065;SDS011;59939;52.516;13.420;2022-10-31T20:15:03;684.58;;;150.43;;